Capitol Logistics 232


KPHX
Phoenix Sky Harbor International Airport
Phoenix, Arizona, US
KSMF
Sacramento International Airport
Sacramento, California, US

Activity Log

Date Flight Route Aircraft Duration
02/24/2020 CPX232 KPHX/07L CHILY4 IGM TACUS DONNR SLMMR3 KSMF/I34L B763 2h 04m
02/27/2019 CPX232 ZEPER1 SISIE DOVEE BTY KENNO DONNR SLMMR3 B763 2h 06m

Route Details

Aircraft Information
Primary: Boeing 767-300BDSF
Backup: Not Available
Route Data
Distance: 562nm
Sched. Duration: 1h 50m
Avg. Duration: 2h 05m (+56m)
Times Flown: 2
Recm'd Route: ZEPER1 SISIE DOVEE BTY KENNO DONNR SLMMR3
Planned Altitude: 36,000ft
Origin Wx: KPHX 061051Z 09006KT 10SM CLR 17/M01 A2983 RMK AO2 SLP086 T01721006
Dest. Wx: KSMF 061053Z 14005KT 10SM FEW031 FEW220 06/04 A2979 RMK AO2 SLP086 T00560039
Notes:

Financial History
Total Freight: 200,318lbs
Average Load: 100,159lbs/flt
Fuel Used: 41,331lbs
Avg. Fuel Used: 20,666lbs/flt
Fuel Expense: $33,478
Avg. Fuel Expense: $16,739
Avg. Fuel Cost: $0.81/lbs
Total Gross Income: $267,107
Pilot Pay: $468
Total Expenses: $28,952
Total Revenue: $203,594
Average Revenue: $133,553.47